Time;durP1;ratioP1;P1;durP2;ratioP2;P2;SDS_P1;SDS_P2;PMS_P1;PMS_P2;Temp;Humidity;BMP_temperature;BMP_pressure;BME280_temperature;BME280_humidity;BME280_pressure;Samples;Min_cycle;Max_cycle;Signal;HPM_P1;HPM_P2
2023/08/10 00:01:33;;;;;;;6.90;1.80;;;;;;;11.58;86.33;100611.48;110183;1278;22193;-80
2023/08/10 00:04:04;;;;;;;12.60;1.90;;;;;;;11.56;86.31;100611.65;110165;1271;22118;-80
2023/08/10 00:06:35;;;;;;;13.00;1.90;;;;;;;11.52;86.29;100613.70;110181;1272;22107;-80
2023/08/10 00:09:07;;;;;;;8.20;2.00;;;;;;;11.48;86.27;100613.67;110139;1274;22310;-80
2023/08/10 00:11:38;;;;;;;8.70;1.80;;;;;;;11.45;86.48;100612.94;110189;1264;22259;-80
2023/08/10 00:14:09;;;;;;;9.80;1.90;;;;;;;11.44;86.36;100617.09;110352;1269;22409;-80
2023/08/10 00:16:40;;;;;;;10.20;2.40;;;;;;;11.39;86.38;100617.08;110384;1272;22852;-80
2023/08/10 00:19:10;;;;;;;6.80;1.80;;;;;;;11.34;86.47;100621.88;110365;1269;22231;-79
2023/08/10 00:21:41;;;;;;;9.40;1.90;;;;;;;11.32;86.68;100624.20;110346;1270;22256;-80
2023/08/10 00:24:12;;;;;;;6.80;2.10;;;;;;;11.34;86.80;100619.27;110350;1276;22332;-80
2023/08/10 00:26:43;;;;;;;7.30;1.50;;;;;;;11.34;86.76;100619.88;110374;1272;22351;-79
2023/08/10 00:29:13;;;;;;;9.20;2.10;;;;;;;11.32;86.71;100621.11;110334;1262;22193;-80
2023/08/10 00:31:44;;;;;;;6.30;2.10;;;;;;;11.28;86.68;100618.98;110364;1276;22227;-79
2023/08/10 00:34:15;;;;;;;7.90;2.10;;;;;;;11.27;86.82;100616.17;110374;1276;22868;-80
2023/08/10 00:36:45;;;;;;;8.20;2.00;;;;;;;11.26;87.04;100622.01;110366;1266;22176;-80
2023/08/10 00:39:17;;;;;;;6.80;1.80;;;;;;;11.25;87.11;100623.70;110363;1276;22442;-80
2023/08/10 00:41:48;;;;;;;4.90;1.30;;;;;;;11.24;87.23;100627.02;110373;1272;22189;-80
2023/08/10 00:44:20;;;;;;;7.20;1.60;;;;;;;11.21;87.47;100626.82;110367;1273;23106;-80
2023/08/10 00:46:51;;;;;;;6.70;1.50;;;;;;;11.21;87.47;100627.00;110347;1277;22193;-80
2023/08/10 00:49:22;;;;;;;9.80;2.20;;;;;;;11.20;87.76;100625.36;110392;1265;22166;-80
2023/08/10 00:51:53;;;;;;;7.00;1.40;;;;;;;11.19;87.75;100624.59;110383;1272;22171;-80
2023/08/10 00:54:23;;;;;;;9.50;1.90;;;;;;;11.19;87.64;100624.79;110414;1269;22193;-80
2023/08/10 00:56:54;;;;;;;8.10;1.70;;;;;;;11.19;87.82;100629.30;110453;1276;22949;-80
2023/08/10 00:59:26;;;;;;;8.80;2.10;;;;;;;11.19;87.88;100631.73;110437;1272;22208;-80
2023/08/10 01:01:57;;;;;;;7.50;1.50;;;;;;;11.18;88.10;100629.69;110355;1272;22254;-80
2023/08/10 01:04:27;;;;;;;6.40;1.40;;;;;;;11.17;88.00;100636.28;110380;1269;22124;-80
2023/08/10 01:07:03;;;;;;;8.90;1.80;;;;;;;11.17;88.28;100632.71;110370;1276;22189;-80
2023/08/10 01:09:45;;;;;;;9.60;1.70;;;;;;;11.19;88.33;100628.48;110384;1276;22767;-80
2023/08/10 01:12:22;;;;;;;6.60;1.60;;;;;;;11.19;88.50;100634.34;110370;1276;22227;-80
2023/08/10 01:15:02;;;;;;;9.90;1.90;;;;;;;11.17;88.58;100637.34;110387;1276;22869;-80
2023/08/10 01:17:40;;;;;;;6.90;1.60;;;;;;;11.15;88.62;100643.03;110368;1272;22192;-80
2023/08/10 01:20:14;;;;;;;10.10;2.00;;;;;;;11.12;88.61;100643.89;110385;1276;22261;-79
2023/08/10 01:23:05;;;;;;;7.10;1.60;;;;;;;11.09;88.59;100644.92;110349;1276;22168;-80
2023/08/10 01:25:36;;;;;;;8.80;1.50;;;;;;;11.07;88.68;100642.77;110344;1272;22204;-80
2023/08/10 01:28:09;;;;;;;8.00;1.60;;;;;;;11.04;88.65;100635.02;110369;1271;22333;-80
2023/08/10 01:30:40;;;;;;;12.40;2.00;;;;;;;11.01;88.62;100635.54;110382;1273;22198;-80
2023/08/10 01:33:11;;;;;;;5.40;1.40;;;;;;;11.00;88.60;100636.19;110344;1276;22398;-80
2023/08/10 01:35:41;;;;;;;10.30;1.40;;;;;;;11.01;88.50;100638.06;110392;1276;22155;-79
2023/08/10 01:38:13;;;;;;;7.30;1.90;;;;;;;11.00;88.79;100639.73;110384;1276;22175;-80
2023/08/10 01:40:44;;;;;;;9.50;2.00;;;;;;;11.00;88.73;100643.59;110345;1274;22258;-80
2023/08/10 01:43:15;;;;;;;9.20;2.10;;;;;;;11.00;88.71;100643.76;110381;1269;22250;-80
2023/08/10 01:45:50;;;;;;;7.90;1.80;;;;;;;10.98;88.68;100646.09;110401;1272;22221;-80
2023/08/10 01:48:25;;;;;;;7.60;1.80;;;;;;;10.94;88.76;100648.03;110352;1274;22985;-80
2023/08/10 01:50:58;;;;;;;8.80;2.00;;;;;;;10.89;88.56;100654.35;110385;1276;22309;-80
2023/08/10 01:53:33;;;;;;;7.20;1.80;;;;;;;10.84;88.65;100653.22;110299;1274;22261;-79
2023/08/10 01:56:05;;;;;;;9.00;1.80;;;;;;;10.81;88.92;100653.64;110379;1276;22250;-80
2023/08/10 01:58:36;;;;;;;11.10;2.00;;;;;;;10.79;88.99;100658.98;110375;1276;22151;-80
2023/08/10 02:01:07;;;;;;;11.00;2.00;;;;;;;10.78;88.69;100657.83;110368;1273;22356;-80
2023/08/10 02:03:39;;;;;;;8.30;2.20;;;;;;;10.74;88.69;100659.71;110411;1276;22225;-80
2023/08/10 02:06:09;;;;;;;8.70;1.80;;;;;;;10.70;88.77;100665.15;110381;1276;22332;-80
2023/08/10 02:08:40;;;;;;;10.40;2.10;;;;;;;10.66;88.78;100666.77;110373;1263;22265;-80
2023/08/10 02:11:11;;;;;;;8.80;2.00;;;;;;;10.64;88.86;100666.15;110391;1276;22173;-80
2023/08/10 02:13:42;;;;;;;7.90;1.50;;;;;;;10.60;88.86;100668.61;110419;1273;22207;-80
2023/08/10 02:16:12;;;;;;;7.70;1.50;;;;;;;10.55;89.24;100672.69;110386;1276;22353;-80
2023/08/10 02:18:43;;;;;;;7.40;1.40;;;;;;;10.53;89.43;100673.34;110391;1272;22170;-80
2023/08/10 02:21:14;;;;;;;7.80;1.70;;;;;;;10.51;89.31;100671.68;110369;1269;22283;-80
2023/08/10 02:23:44;;;;;;;6.50;1.50;;;;;;;10.48;89.21;100675.31;110425;1276;22344;-80
2023/08/10 02:26:15;;;;;;;7.20;1.50;;;;;;;10.45;89.16;100673.05;110416;1276;22205;-80
2023/08/10 02:28:46;;;;;;;5.60;1.40;;;;;;;10.41;89.18;100673.65;110365;1274;22792;-80
2023/08/10 02:31:17;;;;;;;6.00;1.30;;;;;;;10.38;89.28;100674.67;110362;1274;22389;-80
2023/08/10 02:33:48;;;;;;;5.80;1.40;;;;;;;10.34;89.16;100675.08;106286;1276;5406222;-80
2023/08/10 02:36:19;;;;;;;9.30;1.60;;;;;;;10.31;89.37;100671.30;110362;1271;22344;-80
2023/08/10 02:38:50;;;;;;;7.30;1.40;;;;;;;10.29;89.35;100671.05;110368;1272;22850;-79
2023/08/10 02:41:21;;;;;;;4.80;1.20;;;;;;;10.31;89.58;100669.33;110372;1277;22191;-80
2023/08/10 02:43:52;;;;;;;8.20;1.50;;;;;;;10.30;89.47;100674.14;110420;1277;22147;-80
2023/08/10 02:46:23;;;;;;;8.40;1.90;;;;;;;10.29;89.58;100673.39;110389;1269;22149;-80
2023/08/10 02:48:55;;;;;;;8.30;2.00;;;;;;;10.28;89.51;100678.06;110396;1277;23170;-80
2023/08/10 02:51:26;;;;;;;9.50;2.50;;;;;;;10.28;89.75;100676.89;110412;1276;22213;-79
2023/08/10 02:53:57;;;;;;;14.50;2.30;;;;;;;10.26;89.85;100676.39;110402;1277;22141;-80
2023/08/10 02:56:28;;;;;;;10.40;2.40;;;;;;;10.27;89.97;100670.44;110350;1277;22217;-80
2023/08/10 02:58:58;;;;;;;7.80;2.30;;;;;;;10.29;90.11;100665.88;110356;1265;22195;-80
2023/08/10 03:01:29;;;;;;;9.40;2.60;;;;;;;10.30;90.30;100665.55;110385;1276;22195;-80
2023/08/10 03:04:00;;;;;;;8.00;2.20;;;;;;;10.30;90.27;100667.68;110392;1276;22742;-80
2023/08/10 03:06:31;;;;;;;8.20;1.90;;;;;;;10.28;90.21;100667.45;110318;1276;22392;-80
2023/08/10 03:09:03;;;;;;;11.60;2.80;;;;;;;10.27;90.35;100669.16;110375;1276;22950;-80
2023/08/10 03:11:35;;;;;;;11.10;2.10;;;;;;;10.25;90.06;100678.23;110321;1277;22136;-80
2023/08/10 03:14:06;;;;;;;8.60;2.40;;;;;;;10.23;90.15;100681.17;110411;1275;22176;-81
2023/08/10 03:16:37;;;;;;;10.60;2.30;;;;;;;10.20;90.04;100689.17;110411;1272;22260;-81
2023/08/10 03:19:08;;;;;;;10.60;2.30;;;;;;;10.18;90.13;100689.85;110384;1275;22370;-81
2023/08/10 03:21:40;;;;;;;8.80;2.80;;;;;;;10.16;90.71;100700.20;110377;1275;22142;-80
2023/08/10 03:24:11;;;;;;;9.80;1.90;;;;;;;10.16;90.80;100701.88;110380;1269;23102;-80
2023/08/10 03:26:41;;;;;;;10.90;2.60;;;;;;;10.16;90.64;100700.27;110399;1272;22185;-80
2023/08/10 03:29:13;;;;;;;6.00;1.70;;;;;;;10.15;90.52;100699.12;110370;1269;23571;-81
2023/08/10 03:31:43;;;;;;;8.70;1.60;;;;;;;10.12;90.34;100697.51;110422;1276;22160;-81
2023/08/10 03:34:14;;;;;;;6.40;1.70;;;;;;;10.07;90.28;100699.15;110393;1274;22231;-81
2023/08/10 03:36:45;;;;;;;6.90;1.70;;;;;;;10.01;90.10;100708.57;110402;1277;22205;-80
2023/08/10 03:39:18;;;;;;;8.80;2.00;;;;;;;9.97;90.02;100705.26;110414;1276;22303;-80
2023/08/10 03:41:49;;;;;;;6.70;1.80;;;;;;;9.94;89.95;100712.98;110416;1275;22843;-80
2023/08/10 03:44:20;;;;;;;6.30;1.70;;;;;;;9.88;90.05;100716.86;110394;1275;22194;-81
2023/08/10 03:46:53;;;;;;;8.40;1.80;;;;;;;9.83;90.15;100720.12;110401;1269;22824;-81
2023/08/10 03:49:24;;;;;;;8.70;1.70;;;;;;;9.79;90.12;100721.06;110377;1269;22155;-80
2023/08/10 03:51:55;;;;;;;6.80;1.50;;;;;;;9.78;90.25;100721.41;110366;1276;22141;-81
2023/08/10 03:54:26;;;;;;;6.80;1.70;;;;;;;9.76;89.97;100721.44;110423;1269;22306;-81
2023/08/10 03:56:57;;;;;;;9.30;1.40;;;;;;;9.72;90.17;100728.36;110404;1276;22168;-81
2023/08/10 03:59:28;;;;;;;10.30;1.80;;;;;;;9.68;90.14;100732.25;110363;1274;23600;-81
2023/08/10 04:01:59;;;;;;;9.60;2.00;;;;;;;9.67;90.40;100736.14;110380;1274;23288;-80
2023/08/10 04:04:30;;;;;;;6.80;1.60;;;;;;;9.65;90.58;100741.39;110327;1277;22207;-80
2023/08/10 04:07:00;;;;;;;9.80;2.00;;;;;;;9.64;90.67;100743.98;110396;1272;22356;-81
2023/08/10 04:09:31;;;;;;;8.50;1.40;;;;;;;9.64;90.70;100745.05;110310;1276;22195;-80
2023/08/10 04:12:02;;;;;;;9.10;1.20;;;;;;;9.62;90.73;100748.32;110429;1265;22949;-80
2023/08/10 04:14:33;;;;;;;6.00;1.40;;;;;;;9.60;90.85;100747.76;110306;1276;22685;-81
2023/08/10 04:17:11;;;;;;;7.30;1.50;;;;;;;9.59;90.86;100746.18;110350;1274;22175;-81
2023/08/10 04:19:49;;;;;;;6.30;1.50;;;;;;;9.60;91.12;100744.56;110412;1272;22174;-79
2023/08/10 04:22:20;;;;;;;5.30;1.40;;;;;;;9.60;91.12;100747.27;110411;1277;22226;-80
2023/08/10 04:24:51;;;;;;;5.90;1.40;;;;;;;9.63;91.47;100747.30;110361;1277;22199;-80
2023/08/10 04:27:22;;;;;;;5.70;1.40;;;;;;;9.67;91.92;100749.04;110388;1272;22227;-79
2023/08/10 04:29:53;;;;;;;5.60;1.20;;;;;;;9.72;91.80;100751.38;110438;1275;22628;-79
2023/08/10 04:32:23;;;;;;;9.60;1.60;;;;;;;9.74;91.79;100748.90;110473;1275;22229;-79
2023/08/10 04:34:55;;;;;;;6.80;1.50;;;;;;;9.75;91.94;100752.77;110456;1276;22139;-79
2023/08/10 04:37:26;;;;;;;4.60;1.20;;;;;;;9.78;92.08;100752.83;110373;1276;22177;-80
2023/08/10 04:39:57;;;;;;;6.40;1.40;;;;;;;9.83;92.26;100755.40;110363;1276;24071;-80
2023/08/10 04:42:28;;;;;;;5.40;1.40;;;;;;;9.90;92.29;100756.45;110419;1276;22200;-81
2023/08/10 04:44:58;;;;;;;6.00;1.70;;;;;;;9.96;92.31;100749.51;110428;1277;22868;-81
2023/08/10 04:47:29;;;;;;;5.20;1.40;;;;;;;10.03;92.33;100750.97;110334;1276;23147;-81
2023/08/10 04:50:00;;;;;;;6.70;1.90;;;;;;;10.09;92.53;100755.98;110382;1276;22191;-81
2023/08/10 04:52:31;;;;;;;6.00;1.30;;;;;;;10.15;92.56;100758.92;110358;1276;22257;-82
2023/08/10 04:55:02;;;;;;;7.60;1.60;;;;;;;10.23;92.50;100764.97;110392;1276;22196;-79
2023/08/10 04:57:33;;;;;;;7.50;1.60;;;;;;;10.31;92.66;100762.77;110334;1277;22201;-80
2023/08/10 05:00:09;;;;;;;6.10;1.60;;;;;;;10.39;92.77;100763.36;110338;1274;22308;-80
2023/08/10 05:02:40;;;;;;;8.20;1.40;;;;;;;10.49;92.86;100767.31;110356;1276;22193;-79
2023/08/10 05:05:13;;;;;;;13.40;2.50;;;;;;;10.58;92.90;100758.39;110391;1276;22168;-80
2023/08/10 05:07:44;;;;;;;7.80;1.90;;;;;;;10.67;93.06;100759.70;110395;1275;23168;-78
2023/08/10 05:10:15;;;;;;;9.90;2.10;;;;;;;10.76;93.51;100760.86;110405;1276;22974;-80
2023/08/10 05:12:46;;;;;;;11.70;2.40;;;;;;;10.84;93.88;100761.89;110356;1269;22337;-83
2023/08/10 05:15:17;;;;;;;8.60;2.10;;;;;;;10.92;94.22;100762.65;110342;1275;22972;-83
2023/08/10 05:17:47;;;;;;;10.00;2.40;;;;;;;11.01;94.35;100763.36;110396;1276;22165;-83
2023/08/10 05:20:18;;;;;;;13.50;3.10;;;;;;;11.11;94.75;100766.30;110346;1270;22158;-83
2023/08/10 05:22:50;;;;;;;11.00;2.20;;;;;;;11.21;94.77;100772.14;110371;1269;23117;-84
2023/08/10 05:25:21;;;;;;;17.20;2.70;;;;;;;11.33;95.16;100772.48;110370;1274;22972;-85
2023/08/10 05:27:52;;;;;;;12.00;2.90;;;;;;;11.45;95.27;100776.21;110349;1275;22236;-83
2023/08/10 05:30:23;;;;;;;15.10;3.60;;;;;;;11.58;95.22;100772.41;110402;1267;22203;-83
2023/08/10 05:32:53;;;;;;;10.30;2.50;;;;;;;11.67;95.22;100776.83;110451;1276;22154;-84
2023/08/10 05:35:25;;;;;;;11.80;3.80;;;;;;;11.80;95.92;100768.84;110431;1276;22173;-84
2023/08/10 05:37:56;;;;;;;11.30;2.90;;;;;;;11.92;95.72;100770.41;110409;1276;22389;-84
2023/08/10 05:40:27;;;;;;;10.40;2.80;;;;;;;12.01;95.38;100773.52;110403;1265;22294;-84
2023/08/10 05:42:58;;;;;;;11.30;2.20;;;;;;;12.14;95.79;100775.42;110435;1276;22175;-83
2023/08/10 05:45:29;;;;;;;11.10;2.40;;;;;;;12.26;95.79;100774.04;110465;1276;22152;-84
2023/08/10 05:48:00;;;;;;;9.10;2.80;;;;;;;12.37;96.07;100771.93;110461;1276;22394;-84
2023/08/10 05:50:31;;;;;;;10.70;2.60;;;;;;;12.49;96.20;100770.60;110385;1276;22997;-83
2023/08/10 05:53:01;;;;;;;10.90;2.50;;;;;;;12.59;96.32;100769.01;110447;1276;22194;-83
2023/08/10 05:55:32;;;;;;;15.30;3.10;;;;;;;12.69;96.29;100772.71;110385;1276;22153;-84
2023/08/10 05:58:03;;;;;;;10.10;2.20;;;;;;;12.81;96.66;100772.57;110451;1276;22150;-84
2023/08/10 06:00:36;;;;;;;9.40;2.40;;;;;;;12.94;96.49;100782.19;110359;1269;22194;-83
2023/08/10 06:03:07;;;;;;;11.10;1.60;;;;;;;13.07;95.99;100785.14;110477;1275;22165;-84
2023/08/10 06:05:38;;;;;;;7.70;1.70;;;;;;;13.18;96.27;100786.20;110445;1276;22217;-83
2023/08/10 06:08:09;;;;;;;10.60;1.70;;;;;;;13.28;95.67;100786.27;110439;1269;22849;-82
2023/08/10 06:10:41;;;;;;;7.70;1.80;;;;;;;13.36;95.68;100784.92;110429;1275;23295;-83
2023/08/10 06:13:12;;;;;;;9.20;1.80;;;;;;;13.44;95.28;100783.48;110339;1276;22350;-80
2023/08/10 06:15:43;;;;;;;8.30;1.60;;;;;;;13.57;96.14;100786.08;110405;1276;22905;-81
2023/08/10 06:18:14;;;;;;;5.00;1.20;;;;;;;13.72;95.46;100788.95;110397;1276;22392;-80
2023/08/10 06:20:46;;;;;;;7.30;1.50;;;;;;;13.81;95.08;100788.27;110352;1276;22392;-81
2023/08/10 06:23:17;;;;;;;6.80;1.60;;;;;;;13.91;94.85;100790.41;110367;1272;22206;-80
2023/08/10 06:25:50;;;;;;;7.40;1.40;;;;;;;14.02;95.09;100789.94;110405;1275;22453;-80
2023/08/10 06:28:21;;;;;;;8.50;1.70;;;;;;;14.14;95.11;100792.57;110386;1276;22150;-80
2023/08/10 06:30:52;;;;;;;9.50;1.50;;;;;;;14.27;95.24;100796.93;110352;1269;22188;-80
2023/08/10 06:33:23;;;;;;;9.70;1.70;;;;;;;14.40;94.78;100795.48;110377;1272;22127;-80
2023/08/10 06:35:54;;;;;;;8.40;1.60;;;;;;;14.48;93.83;100792.04;110358;1272;22469;-81
2023/08/10 06:38:26;;;;;;;14.90;1.50;;;;;;;14.55;94.29;100794.85;110381;1269;22183;-81
2023/08/10 06:40:57;;;;;;;7.90;1.30;;;;;;;14.67;93.90;100794.06;110335;1273;22391;-80
2023/08/10 06:43:27;;;;;;;6.50;1.30;;;;;;;14.76;93.62;100794.73;110378;1265;22161;-81
2023/08/10 06:45:59;;;;;;;11.70;1.40;;;;;;;14.82;92.61;100797.65;110348;1276;22306;-81
2023/08/10 06:48:30;;;;;;;7.70;1.40;;;;;;;14.88;92.29;100796.38;110297;1273;22347;-81
2023/08/10 06:51:00;;;;;;;6.10;1.60;;;;;;;14.98;92.66;100797.71;110400;1275;22216;-81
2023/08/10 06:53:33;;;;;;;11.70;2.00;;;;;;;15.06;91.92;100800.70;110372;1276;23430;-80
2023/08/10 06:56:05;;;;;;;12.20;3.00;;;;;;;15.13;91.62;100804.77;110368;1276;22149;-81
2023/08/10 06:58:36;;;;;;;18.30;3.70;;;;;;;15.22;91.39;100804.38;110345;1276;22289;-81
2023/08/10 07:01:07;;;;;;;23.50;8.30;;;;;;;15.30;91.06;100808.30;110400;1276;23336;-81
2023/08/10 07:03:38;;;;;;;34.60;14.10;;;;;;;15.38;90.89;100811.13;110386;1274;22173;-81
2023/08/10 07:06:09;;;;;;;35.00;15.40;;;;;;;15.46;90.62;100810.61;110389;1276;22888;-81
2023/08/10 07:08:40;;;;;;;27.60;10.40;;;;;;;15.53;90.21;100806.36;110383;1277;22233;-81
2023/08/10 07:11:11;;;;;;;22.10;6.30;;;;;;;15.59;89.74;100810.56;110374;1277;22104;-81
2023/08/10 07:13:42;;;;;;;17.80;5.60;;;;;;;15.66;89.74;100814.70;110361;1276;22345;-81
2023/08/10 07:16:13;;;;;;;16.40;4.30;;;;;;;15.73;89.32;100807.14;110353;1276;22874;-81
2023/08/10 07:18:44;;;;;;;17.80;4.70;;;;;;;15.80;88.67;100806.20;110365;1266;22201;-81
2023/08/10 07:21:14;;;;;;;14.80;4.40;;;;;;;15.88;88.83;100811.02;110380;1270;22387;-81
2023/08/10 07:23:46;;;;;;;22.40;5.90;;;;;;;15.97;88.52;100810.66;110360;1276;22162;-82
2023/08/10 07:26:17;;;;;;;21.70;7.60;;;;;;;16.07;88.27;100809.66;110382;1276;22433;-81
2023/08/10 07:28:48;;;;;;;20.40;4.20;;;;;;;16.16;87.28;100805.50;110323;1275;22279;-82
2023/08/10 07:31:20;;;;;;;17.30;3.70;;;;;;;16.23;86.85;100808.97;110361;1276;22455;-82
2023/08/10 07:33:50;;;;;;;12.10;3.00;;;;;;;16.33;86.95;100812.40;110359;1274;22151;-82
2023/08/10 07:36:21;;;;;;;11.40;2.00;;;;;;;16.42;86.71;100814.34;110375;1270;23028;-82
2023/08/10 07:38:52;;;;;;;10.60;2.00;;;;;;;16.52;85.88;100815.58;110356;1276;22265;-82
2023/08/10 07:41:23;;;;;;;9.80;1.70;;;;;;;16.61;86.11;100815.27;110365;1276;22320;-82
2023/08/10 07:43:54;;;;;;;11.50;1.50;;;;;;;16.69;85.20;100814.31;110305;1276;22251;-83
2023/08/10 07:46:26;;;;;;;11.40;1.50;;;;;;;16.75;84.64;100811.11;110358;1276;22247;-81
2023/08/10 07:48:57;;;;;;;6.90;1.20;;;;;;;16.83;84.28;100810.92;110374;1276;22220;-81
2023/08/10 07:51:28;;;;;;;6.30;0.80;;;;;;;16.93;84.76;100811.40;110349;1276;22811;-81
2023/08/10 07:53:58;;;;;;;8.10;0.80;;;;;;;17.04;83.74;100808.45;110353;1276;22892;-81
2023/08/10 07:56:29;;;;;;;5.90;0.90;;;;;;;17.11;83.52;100805.75;110336;1277;22181;-83
2023/08/10 07:59:00;;;;;;;6.30;0.80;;;;;;;17.20;83.70;100805.60;110391;1270;22359;-83
2023/08/10 08:01:31;;;;;;;8.00;1.40;;;;;;;17.31;84.01;100809.02;110349;1270;22860;-80
2023/08/10 08:04:01;;;;;;;6.00;0.70;;;;;;;17.44;83.56;100805.61;110305;1275;23307;-81
2023/08/10 08:06:32;;;;;;;6.90;0.70;;;;;;;17.54;83.11;100810.31;110314;1276;23080;-81
2023/08/10 08:09:06;;;;;;;5.90;0.60;;;;;;;17.63;81.46;100810.11;110397;1276;22209;-81
2023/08/10 08:11:37;;;;;;;3.40;0.40;;;;;;;17.73;80.48;100813.39;110379;1270;22235;-81
2023/08/10 08:14:07;;;;;;;2.00;0.40;;;;;;;17.83;80.28;100814.97;110122;1273;24101;-80
2023/08/10 08:16:38;;;;;;;1.90;0.50;;;;;;;17.92;79.96;100816.40;108381;1277;22560;-81
2023/08/10 08:19:09;;;;;;;8.40;0.90;;;;;;;18.03;80.33;100819.71;108566;1276;24302;-80
2023/08/10 08:21:40;;;;;;;4.30;0.70;;;;;;;18.15;78.68;100818.60;108297;1270;23666;-79
2023/08/10 08:24:11;;;;;;;4.50;0.60;;;;;;;18.22;76.92;100819.41;108142;1277;25253;-81
2023/08/10 08:26:42;;;;;;;6.00;0.50;;;;;;;18.25;77.17;100818.21;108764;1277;22538;-81
2023/08/10 08:29:12;;;;;;;3.50;0.40;;;;;;;18.36;77.52;100821.52;108673;1270;22545;-82
2023/08/10 08:31:43;;;;;;;6.80;0.50;;;;;;;18.46;76.73;100817.86;108819;1269;22483;-82
2023/08/10 08:34:14;;;;;;;5.70;0.60;;;;;;;18.50;76.46;100818.31;108749;1276;22709;-82
2023/08/10 08:36:45;;;;;;;6.50;0.60;;;;;;;18.57;76.42;100816.68;108752;1266;22563;-82
2023/08/10 08:39:16;;;;;;;4.80;0.70;;;;;;;18.64;75.57;100814.70;108753;1276;22649;-82
2023/08/10 08:41:49;;;;;;;4.40;0.50;;;;;;;18.66;74.12;100815.92;108683;1276;22551;-82
2023/08/10 08:44:20;;;;;;;4.90;0.60;;;;;;;18.67;73.59;100814.98;108854;1277;22496;-83
2023/08/10 08:46:51;;;;;;;2.80;0.50;;;;;;;18.67;73.20;100816.79;108846;1267;22549;-88
2023/08/10 08:49:22;;;;;;;8.00;0.70;;;;;;;18.72;74.11;100814.50;109003;1276;25431;-85
2023/08/10 08:51:56;;;;;;;8.80;0.70;;;;;;;18.80;73.14;100815.69;109250;1276;25431;-86
2023/08/10 08:54:30;;;;;;;3.80;0.60;;;;;;;18.84;72.74;100816.14;109221;1276;22536;-85
2023/08/10 08:57:01;;;;;;;7.40;0.60;;;;;;;18.84;71.28;100811.82;109327;1271;22639;-86
2023/08/10 08:59:31;;;;;;;2.00;0.60;;;;;;;18.82;71.06;100813.10;108896;1275;22558;-82
2023/08/10 09:02:03;;;;;;;3.30;0.50;;;;;;;18.82;70.17;100815.74;108867;1264;23377;-87
2023/08/10 09:04:34;;;;;;;3.80;0.40;;;;;;;18.83;70.50;100812.80;108950;1271;22571;-84
2023/08/10 09:07:06;;;;;;;4.90;0.60;;;;;;;18.89;70.42;100812.05;108930;1270;22558;-82
2023/08/10 09:09:39;;;;;;;4.80;0.60;;;;;;;18.92;69.64;100809.67;108615;1270;23132;-84
2023/08/10 09:12:34;;;;;;;3.80;0.60;;;;;;;18.95;68.33;100812.58;108524;1270;25060;-85
2023/08/10 09:15:08;;;;;;;5.90;0.50;;;;;;;18.98;66.88;100809.58;110344;1276;23025;-83
2023/08/10 09:17:46;;;;;;;5.50;0.50;;;;;;;19.05;68.39;100814.46;110330;1270;22237;-83
2023/08/10 09:20:22;;;;;;;5.30;0.60;;;;;;;19.17;68.08;100813.52;108420;1270;22609;-80
2023/08/10 09:22:54;;;;;;;4.50;0.40;;;;;;;19.23;67.70;100811.77;108550;1276;22543;-80
2023/08/10 09:25:27;;;;;;;4.10;0.50;;;;;;;19.34;66.76;100812.79;108636;1275;22529;-80
2023/08/10 09:27:57;;;;;;;3.90;0.50;;;;;;;19.37;66.30;100811.19;108544;1270;23705;-80
2023/08/10 09:30:34;;;;;;;4.10;0.40;;;;;;;19.44;66.59;100811.23;108692;1273;24297;-80
2023/08/10 09:33:06;;;;;;;2.00;0.40;;;;;;;19.52;66.21;100810.50;108709;1273;22547;-81
2023/08/10 09:35:37;;;;;;;3.80;0.40;;;;;;;19.59;66.05;100807.81;108655;1274;22615;-81
2023/08/10 09:38:08;;;;;;;6.00;0.60;;;;;;;19.68;65.83;100808.24;108617;1271;23704;-80
2023/08/10 09:40:39;;;;;;;3.40;0.50;;;;;;;19.77;65.57;100802.54;108638;1276;22743;-80
2023/08/10 09:43:12;;;;;;;4.90;0.40;;;;;;;19.87;64.96;100805.12;108564;1276;22563;-80
2023/08/10 09:45:43;;;;;;;5.20;0.40;;;;;;;20.00;65.35;100805.10;108655;1276;22517;-80
2023/08/10 09:48:14;;;;;;;4.90;0.50;;;;;;;20.09;63.98;100800.05;108582;1270;22570;-79
2023/08/10 09:50:49;;;;;;;2.80;0.40;;;;;;;20.16;63.85;100801.06;108623;1273;22616;-81
2023/08/10 09:53:19;;;;;;;4.70;0.50;;;;;;;20.27;63.85;100803.49;108584;1271;24487;-80
2023/08/10 09:55:50;;;;;;;4.70;0.50;;;;;;;20.39;63.04;100805.91;108657;1270;28030;-82
2023/08/10 09:58:22;;;;;;;3.90;0.50;;;;;;;20.44;60.94;100801.23;108594;1270;25557;-80
2023/08/10 10:00:52;;;;;;;2.40;0.30;;;;;;;20.40;60.35;100802.20;108628;1270;23355;-80
2023/08/10 10:03:28;;;;;;;4.50;0.40;;;;;;;20.38;60.49;100803.29;108698;1264;22805;-80
2023/08/10 10:06:00;;;;;;;6.60;0.60;;;;;;;20.48;60.56;100799.27;107900;1271;22495;-84
2023/08/10 10:08:36;;;;;;;6.70;0.50;;;;;;;20.58;60.79;100799.86;108877;1270;22596;-84
2023/08/10 10:11:11;;;;;;;5.70;0.60;;;;;;;20.69;60.50;100791.71;108566;1271;22553;-85
2023/08/10 10:13:43;;;;;;;3.90;0.40;;;;;;;20.81;59.74;100793.58;108718;1273;22531;-84
2023/08/10 10:16:15;;;;;;;4.70;0.40;;;;;;;20.83;58.14;100794.61;108643;1270;23290;-84
2023/08/10 10:18:47;;;;;;;5.80;0.70;;;;;;;20.80;57.28;100795.34;108527;1270;22649;-86
2023/08/10 10:21:19;;;;;;;2.90;0.50;;;;;;;20.77;57.17;100793.15;108477;1270;22468;-84
2023/08/10 10:23:55;;;;;;;4.20;0.50;;;;;;;20.78;56.89;100793.45;108594;1274;25472;-84
2023/08/10 10:26:25;;;;;;;3.60;0.60;;;;;;;20.81;57.23;100795.84;108549;1274;23039;-86
2023/08/10 10:29:19;;;;;;;4.50;0.40;;;;;;;20.82;56.92;100792.25;108693;1270;22546;-81
2023/08/10 10:31:50;;;;;;;6.50;0.60;;;;;;;20.83;56.59;100797.11;110320;1270;22349;-82
2023/08/10 10:34:20;;;;;;;4.10;0.60;;;;;;;20.80;55.80;100795.17;110291;1276;22410;-82
2023/08/10 10:37:13;;;;;;;4.70;0.80;;;;;;;20.76;55.52;100791.30;110319;1276;23287;-80
2023/08/10 10:39:45;;;;;;;2.00;0.50;;;;;;;20.73;55.60;100788.92;110292;1269;22329;-82
2023/08/10 10:42:19;;;;;;;6.00;0.60;;;;;;;20.73;55.37;100792.02;110343;1266;22196;-82
2023/08/10 10:45:07;;;;;;;4.10;0.40;;;;;;;20.75;55.58;100792.09;110325;1276;22989;-83
2023/08/10 10:47:40;;;;;;;3.40;0.40;;;;;;;20.76;55.78;100793.23;109815;1265;25245;-82
2023/08/10 10:50:24;;;;;;;3.90;0.60;;;;;;;20.77;55.10;100793.35;108563;1273;22559;-81
2023/08/10 10:52:57;;;;;;;3.80;0.40;;;;;;;20.83;55.24;100791.57;110362;1270;22351;-82
2023/08/10 10:55:30;;;;;;;3.50;0.30;;;;;;;20.91;54.99;100784.44;110346;1270;22364;-82
2023/08/10 10:58:02;;;;;;;4.80;0.40;;;;;;;21.00;54.71;100788.45;110359;1276;23262;-82
2023/08/10 11:00:34;;;;;;;2.00;0.40;;;;;;;21.13;55.09;100784.09;110354;1276;22214;-82
2023/08/10 11:03:06;;;;;;;5.10;0.60;;;;;;;21.24;54.42;100781.06;110329;1276;22131;-82
2023/08/10 11:05:38;;;;;;;3.30;0.40;;;;;;;21.35;54.57;100775.73;110313;1276;22374;-82
2023/08/10 11:08:09;;;;;;;3.40;0.40;;;;;;;21.44;53.69;100772.73;110331;1276;22678;-82
2023/08/10 11:10:43;;;;;;;2.90;0.40;;;;;;;21.48;52.45;100775.51;110279;1276;22209;-82
2023/08/10 11:13:14;;;;;;;2.60;0.50;;;;;;;21.49;53.36;100776.21;110168;1277;22490;-82
2023/08/10 11:15:49;;;;;;;2.90;0.40;;;;;;;21.58;53.14;100770.38;110336;1276;22288;-82
2023/08/10 11:18:19;;;;;;;4.30;0.40;;;;;;;21.60;52.41;100776.59;110345;1276;22188;-82
2023/08/10 11:20:51;;;;;;;2.60;0.40;;;;;;;21.63;51.90;100774.67;110269;1270;22297;-82
2023/08/10 11:23:22;;;;;;;2.40;0.40;;;;;;;21.67;51.83;100769.27;110314;1276;22349;-82
2023/08/10 11:25:54;;;;;;;2.90;0.30;;;;;;;21.68;51.81;100769.36;110333;1276;22257;-82
2023/08/10 11:28:26;;;;;;;3.60;0.40;;;;;;;21.72;51.46;100774.01;110336;1276;22399;-82
2023/08/10 11:31:03;;;;;;;3.70;0.50;;;;;;;21.77;51.37;100772.88;110322;1271;22238;-82
2023/08/10 11:33:34;;;;;;;3.20;0.30;;;;;;;21.81;50.46;100767.60;110329;1276;22339;-82
2023/08/10 11:36:07;;;;;;;2.90;0.20;;;;;;;21.83;50.43;100770.05;110353;1276;22996;-82
2023/08/10 11:38:49;;;;;;;5.90;0.50;;;;;;;21.83;50.84;100767.46;110327;1276;22967;-82